Sukkur Weather



Sukkur's Current Weather

Temprature 17o haze

haze

Rain: 0 %

Min Temprature17o
Max Temprature17o
Humidity82
Wind Speed2.08 m/h
Sun Rise06:32:40
Sun Set17:43:47
Current Time: 28-Oct-2020 05:19:40
Lat/Lon: 27.71, 68.86




Sukkur's Geo Location



Sukkur's Weather Forecast

Time Overall Temp Min Temp Max Temp Humidity Wind Speed Rain
28-Oct-2020 (Wed)
08:00:00 clear sky 20.960 20.960 25.120 51 2.29 m/h 0 %
11:00:00 clear sky 29.500 29.500 32.950 27 2.51 m/h 0 %
14:00:00 clear sky 34.810 34.810 36.030 13 2.92 m/h 0 %
17:00:00 clear sky 32.880 32.880 33.010 11 1.74 m/h 0 %
20:00:00 clear sky 25.880 25.880 25.880 17 2.29 m/h 0 %
23:00:00 clear sky 24.170 24.170 24.170 18 2.37 m/h 0 %
29-Oct-2020 (Thu)
02:00:00 clear sky 20.300 20.300 20.300 23 0.9 m/h 0 %
05:00:00 clear sky 19.910 19.910 19.910 24 1.86 m/h 0 %
08:00:00 clear sky 25.330 25.330 25.330 17 1.43 m/h 0 %
11:00:00 clear sky 32.910 32.910 32.910 10 1.12 m/h 0 %
14:00:00 clear sky 35.420 35.420 35.420 9 1.39 m/h 0 %
17:00:00 clear sky 32.850 32.850 32.850 11 1.68 m/h 0 %
20:00:00 clear sky 24.100 24.100 24.100 20 0.73 m/h 0 %
23:00:00 clear sky 23.050 23.050 23.050 20 2.04 m/h 0 %
30-Oct-2020 (Fri)
02:00:00 clear sky 21.540 21.540 21.540 24 2.17 m/h 0 %
05:00:00 clear sky 19.020 19.020 19.020 27 0.91 m/h 0 %
08:00:00 clear sky 25.070 25.070 25.070 20 2.25 m/h 0 %
11:00:00 clear sky 32.590 32.590 32.590 12 1.45 m/h 0 %
14:00:00 clear sky 35.100 35.100 35.100 10 1.86 m/h 0 %
17:00:00 clear sky 32.910 32.910 32.910 11 2.1 m/h 0 %
20:00:00 clear sky 24.680 24.680 24.680 19 0.92 m/h 0 %
23:00:00 clear sky 22.950 22.950 22.950 21 1.32 m/h 0 %
31-Oct-2020 (Sat)
02:00:00 clear sky 21.260 21.260 21.260 23 0.55 m/h 0 %
05:00:00 clear sky 20.100 20.100 20.100 25 0.81 m/h 0 %
08:00:00 clear sky 25.640 25.640 25.640 18 1.66 m/h 0 %
11:00:00 clear sky 33.600 33.600 33.600 11 0.8 m/h 0 %
14:00:00 clear sky 35.410 35.410 35.410 9 1.97 m/h 0 %
17:00:00 clear sky 32.450 32.450 32.450 11 1.58 m/h 0 %
20:00:00 clear sky 24.250 24.250 24.250 19 0.43 m/h 0 %
23:00:00 clear sky 21.220 21.220 21.220 22 0.5 m/h 0 %
01-Nov-2020 (Sun)
02:00:00 clear sky 20.820 20.820 20.820 22 0.97 m/h 0 %
05:00:00 clear sky 20.300 20.300 20.300 23 1.71 m/h 0 %
08:00:00 clear sky 25.850 25.850 25.850 16 0.98 m/h 0 %
11:00:00 clear sky 33.490 33.490 33.490 10 0.8 m/h 0 %
14:00:00 clear sky 35.470 35.470 35.470 9 2.81 m/h 0 %
17:00:00 clear sky 32.690 32.690 32.690 11 1.61 m/h 0 %
20:00:00 clear sky 24.550 24.550 24.550 17 1.77 m/h 0 %
23:00:00 clear sky 21.970 21.970 21.970 20 1.7 m/h 0 %
02-Nov-2020 (Mon)
02:00:00 clear sky 20.360 20.360 20.360 22 1.9 m/h 0 %
05:00:00 clear sky 17.900 17.900 17.900 25 0.63 m/h 0 %

Famous Cities (60)